sensor_id;sensor_type;location;lat;lon;timestamp;pressure;altitude;pressure_sealevel;temperature;humidity
51249;BME280;39642;47.556;18.728;2024-01-07T00:01:48;98181.50;;;20.55;38.35
51249;BME280;39642;47.556;18.728;2024-01-07T00:04:18;98182.38;;;20.56;38.33
51249;BME280;39642;47.556;18.728;2024-01-07T00:06:44;98184.16;;;20.55;38.50
51249;BME280;39642;47.556;18.728;2024-01-07T00:09:11;98177.19;;;20.54;38.42
51249;BME280;39642;47.556;18.728;2024-01-07T00:11:38;98179.13;;;20.52;38.37
51249;BME280;39642;47.556;18.728;2024-01-07T00:14:04;98186.09;;;20.53;38.41
51249;BME280;39642;47.556;18.728;2024-01-07T00:16:30;98179.03;;;20.54;38.45
51249;BME280;39642;47.556;18.728;2024-01-07T00:18:56;98186.09;;;20.53;38.32
51249;BME280;39642;47.556;18.728;2024-01-07T00:21:22;98190.53;;;20.53;38.30
51249;BME280;39642;47.556;18.728;2024-01-07T00:23:48;98176.50;;;20.52;38.35
51249;BME280;39642;47.556;18.728;2024-01-07T00:26:14;98183.59;;;20.52;38.37
51249;BME280;39642;47.556;18.728;2024-01-07T00:28:40;98179.25;;;20.51;38.32
51249;BME280;39642;47.556;18.728;2024-01-07T00:31:06;98187.19;;;20.51;38.48
51249;BME280;39642;47.556;18.728;2024-01-07T00:33:35;98185.53;;;20.50;38.47
51249;BME280;39642;47.556;18.728;2024-01-07T00:36:03;98183.00;;;20.48;38.39
51249;BME280;39642;47.556;18.728;2024-01-07T00:38:29;98184.69;;;20.49;38.40
51249;BME280;39642;47.556;18.728;2024-01-07T00:40:55;98189.13;;;20.49;38.46
51249;BME280;39642;47.556;18.728;2024-01-07T00:43:21;98188.28;;;20.48;38.30
51249;BME280;39642;47.556;18.728;2024-01-07T00:45:46;98184.69;;;20.49;38.39
51249;BME280;39642;47.556;18.728;2024-01-07T00:48:14;98182.16;;;20.48;38.34
51249;BME280;39642;47.556;18.728;2024-01-07T00:50:40;98177.72;;;20.48;38.29
51249;BME280;39642;47.556;18.728;2024-01-07T00:53:06;98171.59;;;20.48;38.35
51249;BME280;39642;47.556;18.728;2024-01-07T00:55:32;98172.44;;;20.48;38.42
51249;BME280;39642;47.556;18.728;2024-01-07T00:57:58;98169.94;;;20.47;38.43
51249;BME280;39642;47.556;18.728;2024-01-07T01:00:24;98175.22;;;20.47;38.35
51249;BME280;39642;47.556;18.728;2024-01-07T01:02:50;98180.50;;;20.47;38.25
51249;BME280;39642;47.556;18.728;2024-01-07T01:05:16;98187.56;;;20.46;38.45
51249;BME280;39642;47.556;18.728;2024-01-07T01:07:42;98193.72;;;20.47;38.46
51249;BME280;39642;47.556;18.728;2024-01-07T01:10:08;98192.03;;;20.46;38.40
51249;BME280;39642;47.556;18.728;2024-01-07T01:12:34;98192.03;;;20.46;38.40
51249;BME280;39642;47.556;18.728;2024-01-07T01:15:00;98187.72;;;20.45;38.39
51249;BME280;39642;47.556;18.728;2024-01-07T01:17:25;98182.44;;;20.45;38.39
51249;BME280;39642;47.556;18.728;2024-01-07T01:19:51;98185.09;;;20.45;38.33
51249;BME280;39642;47.556;18.728;2024-01-07T01:22:17;98182.44;;;20.45;38.36
51249;BME280;39642;47.556;18.728;2024-01-07T01:24:43;98183.38;;;20.44;38.33
51249;BME280;39642;47.556;18.728;2024-01-07T01:27:12;98186.87;;;20.44;38.29
51249;BME280;39642;47.556;18.728;2024-01-07T01:29:39;98186.03;;;20.44;38.41
51249;BME280;39642;47.556;18.728;2024-01-07T01:32:06;98185.19;;;20.43;38.25
51249;BME280;39642;47.556;18.728;2024-01-07T01:34:32;98179.91;;;20.43;38.42
51249;BME280;39642;47.556;18.728;2024-01-07T01:36:58;98174.63;;;20.43;38.32
51249;BME280;39642;47.556;18.728;2024-01-07T01:39:24;98181.72;;;20.43;38.33
51249;BME280;39642;47.556;18.728;2024-01-07T01:41:49;98176.56;;;20.41;38.38
51249;BME280;39642;47.556;18.728;2024-01-07T01:44:15;98182.69;;;20.42;38.45
51249;BME280;39642;47.556;18.728;2024-01-07T01:46:41;98172.09;;;20.42;38.41
51249;BME280;39642;47.556;18.728;2024-01-07T01:49:07;98181.84;;;20.41;38.36
51249;BME280;39642;47.556;18.728;2024-01-07T01:51:35;98173.06;;;20.41;38.26
51249;BME280;39642;47.556;18.728;2024-01-07T01:54:01;98171.28;;;20.41;38.37
51249;BME280;39642;47.556;18.728;2024-01-07T01:56:28;98172.25;;;20.40;38.43
51249;BME280;39642;47.556;18.728;2024-01-07T01:58:55;98168.75;;;20.39;38.41
51249;BME280;39642;47.556;18.728;2024-01-07T02:01:22;98174.03;;;20.39;38.27
51249;BME280;39642;47.556;18.728;2024-01-07T02:03:48;98174.91;;;20.40;38.31
51249;BME280;39642;47.556;18.728;2024-01-07T02:06:15;98171.37;;;20.39;38.45
51249;BME280;39642;47.556;18.728;2024-01-07T02:08:41;98172.37;;;20.38;38.30
51249;BME280;39642;47.556;18.728;2024-01-07T02:11:17;98173.19;;;20.39;38.37
51249;BME280;39642;47.556;18.728;2024-01-07T02:13:43;98172.37;;;20.38;38.37
51249;BME280;39642;47.556;18.728;2024-01-07T02:16:10;98175.00;;;20.38;38.30
51249;BME280;39642;47.556;18.728;2024-01-07T02:18:43;98166.25;;;20.38;38.36
51249;BME280;39642;47.556;18.728;2024-01-07T02:21:09;98153.97;;;20.37;38.32
51249;BME280;39642;47.556;18.728;2024-01-07T02:23:35;98154.81;;;20.37;38.37
51249;BME280;39642;47.556;18.728;2024-01-07T02:26:01;98152.16;;;20.37;38.22
51249;BME280;39642;47.556;18.728;2024-01-07T02:28:28;98150.50;;;20.36;38.45
51249;BME280;39642;47.556;18.728;2024-01-07T02:30:54;98148.69;;;20.37;38.34
51249;BME280;39642;47.556;18.728;2024-01-07T02:33:20;98146.19;;;20.35;38.36
51249;BME280;39642;47.556;18.728;2024-01-07T02:35:46;98146.19;;;20.35;38.39
51249;BME280;39642;47.556;18.728;2024-01-07T02:38:12;98145.34;;;20.35;38.34
51249;BME280;39642;47.556;18.728;2024-01-07T02:40:37;98147.16;;;20.34;38.35
51249;BME280;39642;47.556;18.728;2024-01-07T02:43:03;98141.87;;;20.34;38.32
51249;BME280;39642;47.556;18.728;2024-01-07T02:45:29;98144.50;;;20.34;38.35
51249;BME280;39642;47.556;18.728;2024-01-07T02:47:55;98140.19;;;20.33;38.39
51249;BME280;39642;47.556;18.728;2024-01-07T02:50:21;98136.69;;;20.33;38.39
51249;BME280;39642;47.556;18.728;2024-01-07T02:52:47;98135.88;;;20.32;38.33
51249;BME280;39642;47.556;18.728;2024-01-07T02:55:13;98134.19;;;20.31;38.28
51249;BME280;39642;47.556;18.728;2024-01-07T02:57:39;98134.19;;;20.31;38.25
51249;BME280;39642;47.556;18.728;2024-01-07T03:00:05;98125.28;;;20.32;38.41
51249;BME280;39642;47.556;18.728;2024-01-07T03:02:32;98134.19;;;20.31;38.38
51249;BME280;39642;47.556;18.728;2024-01-07T03:04:57;98128.91;;;20.31;38.22
51249;BME280;39642;47.556;18.728;2024-01-07T03:07:23;98133.34;;;20.31;38.36
51249;BME280;39642;47.556;18.728;2024-01-07T03:09:49;98135.97;;;20.31;38.29
51249;BME280;39642;47.556;18.728;2024-01-07T03:12:16;98127.22;;;20.30;38.28
51249;BME280;39642;47.556;18.728;2024-01-07T03:14:42;98136.97;;;20.30;38.19
51249;BME280;39642;47.556;18.728;2024-01-07T03:17:10;98127.22;;;20.30;38.22
51249;BME280;39642;47.556;18.728;2024-01-07T03:19:37;98123.75;;;20.30;38.33
51249;BME280;39642;47.556;18.728;2024-01-07T03:22:04;98132.50;;;20.30;38.30
51249;BME280;39642;47.556;18.728;2024-01-07T03:24:33;98119.44;;;20.29;38.26
51249;BME280;39642;47.556;18.728;2024-01-07T03:26:58;98115.00;;;20.29;38.29
51249;BME280;39642;47.556;18.728;2024-01-07T03:29:24;98124.72;;;20.29;38.32
51249;BME280;39642;47.556;18.728;2024-01-07T03:31:50;98124.72;;;20.29;38.38
51249;BME280;39642;47.556;18.728;2024-01-07T03:34:17;98123.88;;;20.28;38.28
51249;BME280;39642;47.556;18.728;2024-01-07T03:36:42;98116.91;;;20.27;38.28
51249;BME280;39642;47.556;18.728;2024-01-07T03:39:08;98123.03;;;20.28;38.35
51249;BME280;39642;47.556;18.728;2024-01-07T03:41:34;98119.56;;;20.27;38.30
51249;BME280;39642;47.556;18.728;2024-01-07T03:44:00;98120.50;;;20.26;38.29
51249;BME280;39642;47.556;18.728;2024-01-07T03:46:26;98118.72;;;20.27;38.27
51249;BME280;39642;47.556;18.728;2024-01-07T03:48:52;98117.87;;;20.26;38.33
51249;BME280;39642;47.556;18.728;2024-01-07T03:51:17;98111.75;;;20.26;38.22
51249;BME280;39642;47.556;18.728;2024-01-07T03:53:43;98117.87;;;20.26;38.35
51249;BME280;39642;47.556;18.728;2024-01-07T03:56:09;98123.16;;;20.26;38.37
51249;BME280;39642;47.556;18.728;2024-01-07T03:58:35;98116.22;;;20.25;38.37
51249;BME280;39642;47.556;18.728;2024-01-07T04:01:01;98121.50;;;20.25;38.50
51249;BME280;39642;47.556;18.728;2024-01-07T04:03:27;98115.38;;;20.25;38.43
51249;BME280;39642;47.556;18.728;2024-01-07T04:05:53;98117.19;;;20.24;38.37
51249;BME280;39642;47.556;18.728;2024-01-07T04:08:19;98119.84;;;20.24;38.25
51249;BME280;39642;47.556;18.728;2024-01-07T04:10:45;98122.47;;;20.24;38.38
51249;BME280;39642;47.556;18.728;2024-01-07T04:13:11;98126.91;;;20.24;38.31
51249;BME280;39642;47.556;18.728;2024-01-07T04:15:36;98121.62;;;20.24;38.37
51249;BME280;39642;47.556;18.728;2024-01-07T04:18:03;98118.13;;;20.23;38.34
51249;BME280;39642;47.556;18.728;2024-01-07T04:20:30;98117.31;;;20.23;38.34
51249;BME280;39642;47.556;18.728;2024-01-07T04:22:56;98119.94;;;20.23;38.38
51249;BME280;39642;47.556;18.728;2024-01-07T04:25:26;98121.75;;;20.22;38.37
51249;BME280;39642;47.556;18.728;2024-01-07T04:27:52;98126.19;;;20.22;38.41
51249;BME280;39642;47.556;18.728;2024-01-07T04:30:17;98122.72;;;20.21;38.39
51249;BME280;39642;47.556;18.728;2024-01-07T04:32:43;98134.13;;;20.22;38.40
51249;BME280;39642;47.556;18.728;2024-01-07T04:35:09;98131.47;;;20.22;38.32
51249;BME280;39642;47.556;18.728;2024-01-07T04:37:36;98133.28;;;20.21;38.37
51249;BME280;39642;47.556;18.728;2024-01-07T04:40:03;98138.56;;;20.21;38.40
51249;BME280;39642;47.556;18.728;2024-01-07T04:42:29;98136.03;;;20.20;38.34
51249;BME280;39642;47.556;18.728;2024-01-07T04:44:55;98136.91;;;20.20;38.32
51249;BME280;39642;47.556;18.728;2024-01-07T04:47:26;98138.69;;;20.20;38.35
51249;BME280;39642;47.556;18.728;2024-01-07T04:49:52;98129.09;;;20.18;38.33
51249;BME280;39642;47.556;18.728;2024-01-07T04:52:18;98140.50;;;20.19;38.47
51249;BME280;39642;47.556;18.728;2024-01-07T04:54:44;98141.47;;;20.18;38.31
51249;BME280;39642;47.556;18.728;2024-01-07T04:57:10;98140.66;;;20.17;38.33
51249;BME280;39642;47.556;18.728;2024-01-07T04:59:36;98144.13;;;20.18;38.34
51249;BME280;39642;47.556;18.728;2024-01-07T05:02:02;98134.50;;;20.17;38.32
51249;BME280;39642;47.556;18.728;2024-01-07T05:04:28;98142.44;;;20.17;38.29
51249;BME280;39642;47.556;18.728;2024-01-07T05:06:53;98142.44;;;20.17;38.42
51249;BME280;39642;47.556;18.728;2024-01-07T05:09:19;98141.59;;;20.16;38.40
51249;BME280;39642;47.556;18.728;2024-01-07T05:11:45;98140.75;;;20.16;38.29
51249;BME280;39642;47.556;18.728;2024-01-07T05:14:11;98135.47;;;20.16;38.37
51249;BME280;39642;47.556;18.728;2024-01-07T05:16:37;98137.28;;;20.15;38.29
51249;BME280;39642;47.556;18.728;2024-01-07T05:19:03;98129.38;;;20.15;38.33
51249;BME280;39642;47.556;18.728;2024-01-07T05:21:29;98137.28;;;20.15;38.26
51249;BME280;39642;47.556;18.728;2024-01-07T05:23:55;98133.94;;;20.13;38.36
51249;BME280;39642;47.556;18.728;2024-01-07T05:26:21;98135.59;;;20.14;38.34
51249;BME280;39642;47.556;18.728;2024-01-07T05:28:47;98135.59;;;20.14;38.34
51249;BME280;39642;47.556;18.728;2024-01-07T05:31:17;98138.25;;;20.14;38.25
51249;BME280;39642;47.556;18.728;2024-01-07T05:33:44;98138.25;;;20.14;38.22
51249;BME280;39642;47.556;18.728;2024-01-07T05:36:11;98131.28;;;20.13;38.27
51249;BME280;39642;47.556;18.728;2024-01-07T05:38:37;98134.88;;;20.12;38.21
51249;BME280;39642;47.556;18.728;2024-01-07T05:41:04;98141.87;;;20.13;38.31
51249;BME280;39642;47.556;18.728;2024-01-07T05:43:30;98139.34;;;20.12;38.24
51249;BME280;39642;47.556;18.728;2024-01-07T05:45:56;98140.16;;;20.12;38.28
51249;BME280;39642;47.556;18.728;2024-01-07T05:48:22;98139.34;;;20.12;38.27
51249;BME280;39642;47.556;18.728;2024-01-07T05:50:49;98137.69;;;20.11;38.22
51249;BME280;39642;47.556;18.728;2024-01-07T05:53:15;98138.50;;;20.11;38.33
51249;BME280;39642;47.556;18.728;2024-01-07T05:55:41;98136.69;;;20.12;38.27
51249;BME280;39642;47.556;18.728;2024-01-07T05:58:07;98138.50;;;20.11;38.30
51249;BME280;39642;47.556;18.728;2024-01-07T06:00:34;98137.69;;;20.11;38.33
51249;BME280;39642;47.556;18.728;2024-01-07T06:03:00;98138.63;;;20.10;38.20
51249;BME280;39642;47.556;18.728;2024-01-07T06:05:26;98140.31;;;20.11;38.21
51249;BME280;39642;47.556;18.728;2024-01-07T06:07:52;98136.81;;;20.10;38.25
51249;BME280;39642;47.556;18.728;2024-01-07T06:10:18;98140.31;;;20.11;38.25
51249;BME280;39642;47.556;18.728;2024-01-07T06:12:44;98138.63;;;20.10;38.36
51249;BME280;39642;47.556;18.728;2024-01-07T06:15:10;98139.59;;;20.09;38.39
51249;BME280;39642;47.556;18.728;2024-01-07T06:17:36;98134.31;;;20.09;38.27
51249;BME280;39642;47.556;18.728;2024-01-07T06:20:02;98137.78;;;20.09;38.30
51249;BME280;39642;47.556;18.728;2024-01-07T06:22:28;98140.56;;;20.08;38.26
51249;BME280;39642;47.556;18.728;2024-01-07T06:24:54;98139.59;;;20.09;38.14
51249;BME280;39642;47.556;18.728;2024-01-07T06:27:20;98144.03;;;20.08;38.26
51249;BME280;39642;47.556;18.728;2024-01-07T06:29:45;98144.88;;;20.09;38.29
51249;BME280;39642;47.556;18.728;2024-01-07T06:32:13;98145.84;;;20.08;38.37
51249;BME280;39642;47.556;18.728;2024-01-07T06:34:39;98141.53;;;20.07;38.29
51249;BME280;39642;47.556;18.728;2024-01-07T06:37:05;98143.34;;;20.06;38.31
51249;BME280;39642;47.556;18.728;2024-01-07T06:39:33;98145.00;;;20.07;38.25
51249;BME280;39642;47.556;18.728;2024-01-07T06:42:00;98137.19;;;20.06;38.37
51249;BME280;39642;47.556;18.728;2024-01-07T06:44:25;98140.69;;;20.06;38.24
51249;BME280;39642;47.556;18.728;2024-01-07T06:46:51;98144.16;;;20.07;38.27
51249;BME280;39642;47.556;18.728;2024-01-07T06:49:17;98150.41;;;20.06;38.27
51249;BME280;39642;47.556;18.728;2024-01-07T06:51:43;98146.94;;;20.05;38.41
51249;BME280;39642;47.556;18.728;2024-01-07T06:54:09;98149.56;;;20.05;38.34
51249;BME280;39642;47.556;18.728;2024-01-07T06:56:35;98154.03;;;20.05;38.40
51249;BME280;39642;47.556;18.728;2024-01-07T06:59:01;98159.31;;;20.05;38.36
51249;BME280;39642;47.556;18.728;2024-01-07T07:01:26;98156.66;;;20.05;38.42
51249;BME280;39642;47.556;18.728;2024-01-07T07:03:52;98160.25;;;20.04;38.46
51249;BME280;39642;47.556;18.728;2024-01-07T07:06:18;98158.59;;;20.03;38.47
51249;BME280;39642;47.556;18.728;2024-01-07T07:08:45;98165.53;;;20.04;38.37
51249;BME280;39642;47.556;18.728;2024-01-07T07:11:11;98170.00;;;20.03;38.44
51249;BME280;39642;47.556;18.728;2024-01-07T07:13:37;98171.81;;;20.03;38.36
51249;BME280;39642;47.556;18.728;2024-01-07T07:16:04;98173.63;;;20.02;38.29
51249;BME280;39642;47.556;18.728;2024-01-07T07:18:30;98174.44;;;20.03;38.43
51249;BME280;39642;47.556;18.728;2024-01-07T07:20:55;98181.53;;;20.02;38.27
51249;BME280;39642;47.556;18.728;2024-01-07T07:23:21;98180.69;;;20.02;38.38
51249;BME280;39642;47.556;18.728;2024-01-07T07:25:47;98178.91;;;20.02;38.42
51249;BME280;39642;47.556;18.728;2024-01-07T07:28:13;98182.50;;;20.01;38.52
51249;BME280;39642;47.556;18.728;2024-01-07T07:30:39;98191.25;;;20.02;38.45
51249;BME280;39642;47.556;18.728;2024-01-07T07:33:05;98181.66;;;20.01;38.38
51249;BME280;39642;47.556;18.728;2024-01-07T07:35:30;98184.31;;;20.01;38.38
51249;BME280;39642;47.556;18.728;2024-01-07T07:37:56;98181.66;;;20.01;38.31
51249;BME280;39642;47.556;18.728;2024-01-07T07:40:22;98186.09;;;20.00;38.58
51249;BME280;39642;47.556;18.728;2024-01-07T07:42:48;98183.47;;;20.00;38.35
51249;BME280;39642;47.556;18.728;2024-01-07T07:45:14;98182.62;;;20.00;38.37
51249;BME280;39642;47.556;18.728;2024-01-07T07:47:40;98185.28;;;20.00;38.43
51249;BME280;39642;47.556;18.728;2024-01-07T07:50:10;98190.56;;;20.00;38.33
51249;BME280;39642;47.556;18.728;2024-01-07T07:52:36;98191.50;;;19.99;38.47
51249;BME280;39642;47.556;18.728;2024-01-07T07:55:02;98202.06;;;19.99;38.44
51249;BME280;39642;47.556;18.728;2024-01-07T07:57:28;98194.16;;;19.99;38.50
51249;BME280;39642;47.556;18.728;2024-01-07T07:59:54;98199.44;;;19.99;38.42
51249;BME280;39642;47.556;18.728;2024-01-07T08:02:20;98202.06;;;19.99;38.37
51249;BME280;39642;47.556;18.728;2024-01-07T08:04:47;98200.41;;;19.98;38.39
51249;BME280;39642;47.556;18.728;2024-01-07T08:07:13;98207.34;;;19.99;38.42
51249;BME280;39642;47.556;18.728;2024-01-07T08:09:39;98206.53;;;19.98;38.47
51249;BME280;39642;47.556;18.728;2024-01-07T08:12:06;98212.75;;;19.97;38.35
51249;BME280;39642;47.556;18.728;2024-01-07T08:14:32;98210.13;;;19.97;38.43
51249;BME280;39642;47.556;18.728;2024-01-07T08:16:59;98210.97;;;19.98;38.53
51249;BME280;39642;47.556;18.728;2024-01-07T08:19:25;98207.47;;;19.97;38.46
51249;BME280;39642;47.556;18.728;2024-01-07T08:21:50;98207.63;;;19.95;38.38
51249;BME280;39642;47.556;18.728;2024-01-07T08:24:16;98219.84;;;19.96;38.51
51249;BME280;39642;47.556;18.728;2024-01-07T08:26:42;98216.38;;;19.96;38.32
51249;BME280;39642;47.556;18.728;2024-01-07T08:29:08;98219.84;;;19.96;38.34
51249;BME280;39642;47.556;18.728;2024-01-07T08:31:34;98226.13;;;19.95;38.40
51249;BME280;39642;47.556;18.728;2024-01-07T08:34:00;98226.13;;;19.95;38.52
51249;BME280;39642;47.556;18.728;2024-01-07T08:36:26;98226.13;;;19.95;38.40
51249;BME280;39642;47.556;18.728;2024-01-07T08:38:52;98229.69;;;19.94;38.44
51249;BME280;39642;47.556;18.728;2024-01-07T08:41:18;98234.97;;;19.94;38.45
51249;BME280;39642;47.556;18.728;2024-01-07T08:43:44;98234.16;;;19.94;38.48
51249;BME280;39642;47.556;18.728;2024-01-07T08:46:12;98231.50;;;19.94;38.48
51249;BME280;39642;47.556;18.728;2024-01-07T08:48:39;98234.97;;;19.94;38.48
51249;BME280;39642;47.556;18.728;2024-01-07T08:51:05;98240.41;;;19.93;38.53
51249;BME280;39642;47.556;18.728;2024-01-07T08:53:32;98251.81;;;19.93;38.54
51249;BME280;39642;47.556;18.728;2024-01-07T08:55:58;98246.53;;;19.93;38.55
51249;BME280;39642;47.556;18.728;2024-01-07T08:58:23;98247.37;;;19.94;38.54
51249;BME280;39642;47.556;18.728;2024-01-07T09:00:49;98248.34;;;19.93;38.57
51249;BME280;39642;47.556;18.728;2024-01-07T09:03:15;98256.25;;;19.93;38.68
51249;BME280;39642;47.556;18.728;2024-01-07T09:05:41;98251.09;;;19.91;38.49
51249;BME280;39642;47.556;18.728;2024-01-07T09:08:07;98255.41;;;19.92;38.61
51249;BME280;39642;47.556;18.728;2024-01-07T09:10:33;98254.56;;;19.92;38.55
51249;BME280;39642;47.556;18.728;2024-01-07T09:12:59;98253.75;;;19.91;38.61
51249;BME280;39642;47.556;18.728;2024-01-07T09:15:25;98245.81;;;19.91;38.54
51249;BME280;39642;47.556;18.728;2024-01-07T09:17:51;98253.75;;;19.91;38.53
51249;BME280;39642;47.556;18.728;2024-01-07T09:20:17;98252.03;;;19.90;38.61
51249;BME280;39642;47.556;18.728;2024-01-07T09:22:43;98252.91;;;19.91;38.61
51249;BME280;39642;47.556;18.728;2024-01-07T09:25:10;98259.03;;;19.91;38.70
51249;BME280;39642;47.556;18.728;2024-01-07T09:27:35;98265.25;;;19.90;38.51
51249;BME280;39642;47.556;18.728;2024-01-07T09:30:02;98261.78;;;19.90;38.54
51249;BME280;39642;47.556;18.728;2024-01-07T09:32:28;98260.94;;;19.89;38.44
51249;BME280;39642;47.556;18.728;2024-01-07T09:34:53;98255.66;;;19.89;38.59
51249;BME280;39642;47.556;18.728;2024-01-07T09:37:19;98257.31;;;19.90;38.49
51249;BME280;39642;47.556;18.728;2024-01-07T09:39:45;98253.00;;;19.89;38.41
51249;BME280;39642;47.556;18.728;2024-01-07T09:42:16;98257.31;;;19.90;38.48
51249;BME280;39642;47.556;18.728;2024-01-07T09:44:43;98252.19;;;19.89;38.47
51249;BME280;39642;47.556;18.728;2024-01-07T09:47:15;98254.00;;;19.88;38.46
51249;BME280;39642;47.556;18.728;2024-01-07T09:49:42;98254.81;;;19.89;38.47
51249;BME280;39642;47.556;18.728;2024-01-07T09:52:09;98252.19;;;19.89;38.40
51249;BME280;39642;47.556;18.728;2024-01-07T09:54:36;98254.00;;;19.88;38.56
51249;BME280;39642;47.556;18.728;2024-01-07T09:57:04;98254.09;;;19.87;38.51
51249;BME280;39642;47.556;18.728;2024-01-07T09:59:34;98250.63;;;19.86;38.41
51249;BME280;39642;47.556;18.728;2024-01-07T10:02:00;98250.63;;;19.86;38.46
51249;BME280;39642;47.556;18.728;2024-01-07T10:04:27;98248.00;;;19.86;38.36
51249;BME280;39642;47.556;18.728;2024-01-07T10:06:56;98242.72;;;19.86;38.42
51249;BME280;39642;47.556;18.728;2024-01-07T10:09:24;98241.00;;;19.85;38.35
51249;BME280;39642;47.556;18.728;2024-01-07T10:11:52;98245.34;;;19.86;38.29
51249;BME280;39642;47.556;18.728;2024-01-07T10:14:18;98244.50;;;19.86;38.28
51249;BME280;39642;47.556;18.728;2024-01-07T10:16:45;98247.13;;;19.86;38.24
51249;BME280;39642;47.556;18.728;2024-01-07T10:19:11;98243.66;;;19.85;38.27
51249;BME280;39642;47.556;18.728;2024-01-07T10:21:40;98250.75;;;19.85;38.33
51249;BME280;39642;47.556;18.728;2024-01-07T10:24:13;98250.63;;;19.86;38.24
51249;BME280;39642;47.556;18.728;2024-01-07T10:26:40;98248.09;;;19.85;38.22
51249;BME280;39642;47.556;18.728;2024-01-07T10:29:07;98240.19;;;19.85;38.25
51249;BME280;39642;47.556;18.728;2024-01-07T10:31:37;98243.66;;;19.85;38.22
51249;BME280;39642;47.556;18.728;2024-01-07T10:34:07;98241.00;;;19.85;38.14
51249;BME280;39642;47.556;18.728;2024-01-07T10:36:33;98245.56;;;19.83;38.23
51249;BME280;39642;47.556;18.728;2024-01-07T10:38:59;98245.56;;;19.83;38.18
51249;BME280;39642;47.556;18.728;2024-01-07T10:41:26;98250.03;;;19.83;38.18
51249;BME280;39642;47.556;18.728;2024-01-07T10:43:52;98241.28;;;19.82;38.22
51249;BME280;39642;47.556;18.728;2024-01-07T10:46:18;98244.75;;;19.83;38.14
51249;BME280;39642;47.556;18.728;2024-01-07T10:48:54;98243.91;;;19.82;38.14
51249;BME280;39642;47.556;18.728;2024-01-07T10:51:21;98243.91;;;19.82;38.08
51249;BME280;39642;47.556;18.728;2024-01-07T10:53:52;98245.72;;;19.82;38.10
51249;BME280;39642;47.556;18.728;2024-01-07T10:56:24;98246.56;;;19.82;38.09
51249;BME280;39642;47.556;18.728;2024-01-07T10:58:52;98250.13;;;19.81;38.11
51249;BME280;39642;47.556;18.728;2024-01-07T11:01:19;98247.50;;;19.81;38.07
51249;BME280;39642;47.556;18.728;2024-01-07T11:03:59;98245.84;;;19.80;38.07
51249;BME280;39642;47.556;18.728;2024-01-07T11:06:33;98245.84;;;19.80;37.94
51249;BME280;39642;47.556;18.728;2024-01-07T11:09:07;98243.19;;;19.80;38.02
51249;BME280;39642;47.556;18.728;2024-01-07T11:11:39;98243.19;;;19.80;37.97
51249;BME280;39642;47.556;18.728;2024-01-07T11:17:13;98235.28;;;19.80;37.92
51249;BME280;39642;47.556;18.728;2024-01-07T11:19:51;98232.75;;;19.79;37.90
51249;BME280;39642;47.556;18.728;2024-01-07T11:22:26;98233.56;;;19.79;37.86
51249;BME280;39642;47.556;18.728;2024-01-07T11:24:57;98230.94;;;19.79;37.92
51249;BME280;39642;47.556;18.728;2024-01-07T11:27:24;98240.66;;;19.79;38.02
51249;BME280;39642;47.556;18.728;2024-01-07T11:30:02;98242.47;;;19.78;37.81
51249;BME280;39642;47.556;18.728;2024-01-07T11:32:30;98239.84;;;19.78;37.76
51249;BME280;39642;47.556;18.728;2024-01-07T11:34:56;98239.00;;;19.78;37.81
51249;BME280;39642;47.556;18.728;2024-01-07T11:37:25;98235.53;;;19.77;37.77
51249;BME280;39642;47.556;18.728;2024-01-07T11:39:55;98237.19;;;19.78;37.75
51249;BME280;39642;47.556;18.728;2024-01-07T11:42:21;98237.19;;;19.78;37.73
51249;BME280;39642;47.556;18.728;2024-01-07T11:44:52;98234.66;;;19.76;37.73
51249;BME280;39642;47.556;18.728;2024-01-07T11:47:19;98237.31;;;19.76;37.67
51249;BME280;39642;47.556;18.728;2024-01-07T11:49:45;98239.94;;;19.76;37.99
51249;BME280;39642;47.556;18.728;2024-01-07T11:52:12;98244.41;;;19.76;38.14
51249;BME280;39642;47.556;18.728;2024-01-07T11:54:38;98244.41;;;19.76;37.77
51249;BME280;39642;47.556;18.728;2024-01-07T11:57:08;98242.72;;;19.75;37.98
51249;BME280;39642;47.556;18.728;2024-01-07T11:59:34;98250.50;;;19.76;37.62
51249;BME280;39642;47.556;18.728;2024-01-07T12:02:01;98251.22;;;19.79;37.51
51249;BME280;39642;47.556;18.728;2024-01-07T12:04:30;98244.12;;;19.79;37.41
51249;BME280;39642;47.556;18.728;2024-01-07T12:06:57;98252.78;;;19.81;37.33
51249;BME280;39642;47.556;18.728;2024-01-07T12:09:22;98238.03;;;19.79;37.30
51249;BME280;39642;47.556;18.728;2024-01-07T12:11:48;98244.12;;;19.79;37.27
51249;BME280;39642;47.556;18.728;2024-01-07T12:14:15;98245.12;;;19.78;37.26
51249;BME280;39642;47.556;18.728;2024-01-07T12:16:41;98244.28;;;19.78;37.28
51249;BME280;39642;47.556;18.728;2024-01-07T12:19:08;98244.41;;;19.76;37.28
51249;BME280;39642;47.556;18.728;2024-01-07T12:21:34;98242.72;;;19.75;37.22
51249;BME280;39642;47.556;18.728;2024-01-07T12:24:00;98250.66;;;19.75;37.25
51249;BME280;39642;47.556;18.728;2024-01-07T12:26:27;98249.78;;;19.74;37.21
51249;BME280;39642;47.556;18.728;2024-01-07T12:28:54;98257.72;;;19.74;37.18
51249;BME280;39642;47.556;18.728;2024-01-07T12:31:21;98255.22;;;19.73;37.19
51249;BME280;39642;47.556;18.728;2024-01-07T12:33:47;98264.81;;;19.74;37.15
51249;BME280;39642;47.556;18.728;2024-01-07T12:36:13;98265.78;;;19.73;37.10
51249;BME280;39642;47.556;18.728;2024-01-07T12:38:40;98271.87;;;19.73;37.09
51249;BME280;39642;47.556;18.728;2024-01-07T12:41:06;98273.69;;;19.73;37.08
51249;BME280;39642;47.556;18.728;2024-01-07T12:43:33;98269.38;;;19.72;37.04
51249;BME280;39642;47.556;18.728;2024-01-07T12:45:59;98273.81;;;19.71;37.05
51249;BME280;39642;47.556;18.728;2024-01-07T12:48:30;98281.72;;;19.71;37.07
51249;BME280;39642;47.556;18.728;2024-01-07T12:50:57;98280.91;;;19.71;37.05